Terminal Aerodrome Forecast
Issued by NWS Hastings, NE

Home | Current Version | Previous Version | Text Only | Print | Product List | Glossary On
Versions: 1 2 3 4 5 6 7 8 9 10 11 12 13 14 15 16 17 18 19 20 21
000
FTUS45 KGID 021129
TAFEAR
TAF
KEAR 021129Z 0212/0312 34015G22KT P6SM VCSH SCT015 BKN050
      TEMPO 0212/0215 BKN015
     FM021600 34015G22KT P6SM SCT015 BKN050
     FM022100 34012KT P6SM SCT050
     FM030000 30006KT P6SM SKC
     FM030600 33017G27KT P6SM VCSH SCT015 BKN040
      AMD LTD TO CLD VIS AND WIND=

USA.gov is the U.S. government's official web portal to all federal, state and local government web resources and services.